Time;durP1;ratioP1;P1;durP2;ratioP2;P2;SDS_P1;SDS_P2;PMS_P1;PMS_P2;Temp;Humidity;BMP_temperature;BMP_pressure;BME280_temperature;BME280_humidity;BME280_pressure;Samples;Min_cycle;Max_cycle;Signal;HPM_P1;HPM_P2
2023/09/30 00:00:00;;;;;;;1999.90;999.90;;;;;;;17.74;100.00;96055.31;5065331;28;20174;-49
2023/09/30 00:02:25;;;;;;;1999.90;999.90;;;;;;;17.71;100.00;96049.91;5064898;28;20241;-52
2023/09/30 00:04:51;;;;;;;1999.90;999.90;;;;;;;17.70;100.00;96053.88;5064716;28;20241;-53
2023/09/30 00:07:16;;;;;;;1999.90;999.90;;;;;;;17.63;100.00;96054.06;5065214;28;20166;-55
2023/09/30 00:09:41;;;;;;;1999.90;999.90;;;;;;;17.65;100.00;96051.63;5064690;28;20166;-47
2023/09/30 00:12:07;;;;;;;1999.90;999.90;;;;;;;17.61;100.00;96040.66;5064651;28;20188;-50
2023/09/30 00:14:32;;;;;;;1999.90;999.90;;;;;;;17.59;100.00;96043.06;5064457;28;20177;-49
2023/09/30 00:16:57;;;;;;;1999.90;999.90;;;;;;;17.56;100.00;96048.69;5064578;28;20204;-49
2023/09/30 00:19:23;;;;;;;1999.90;999.90;;;;;;;17.54;100.00;96056.63;5064520;28;20177;-52
2023/09/30 00:21:49;;;;;;;1999.90;999.90;;;;;;;17.53;100.00;96063.38;5064612;28;20465;-49
2023/09/30 00:24:14;;;;;;;1999.90;999.90;;;;;;;17.50;100.00;96059.50;5064255;28;20198;-50
2023/09/30 00:26:39;;;;;;;1999.90;999.90;;;;;;;17.50;100.00;96061.47;5064828;28;20268;-52
2023/09/30 00:29:05;;;;;;;1999.90;999.90;;;;;;;17.51;100.00;96071.28;5064323;28;20237;-50
2023/09/30 00:31:31;;;;;;;1999.90;999.90;;;;;;;17.52;100.00;96075.63;5064392;28;20172;-53
2023/09/30 00:33:56;;;;;;;1999.90;999.90;;;;;;;17.55;100.00;96069.25;5064184;28;20366;-48
2023/09/30 00:36:22;;;;;;;1999.90;999.90;;;;;;;17.59;100.00;96065.19;5064734;28;20236;-51
2023/09/30 00:38:47;;;;;;;1999.90;999.90;;;;;;;17.66;100.00;96080.81;5064135;28;20249;-52
2023/09/30 00:41:12;;;;;;;1999.90;999.90;;;;;;;17.73;100.00;96080.63;5064656;28;20204;-50
2023/09/30 00:43:38;;;;;;;1999.90;999.90;;;;;;;17.77;100.00;96071.03;5063988;28;20197;-51
2023/09/30 00:46:22;;;;;;;1999.90;999.90;;;;;;;17.79;100.00;96073.38;5064857;28;20244;-54
2023/09/30 00:48:48;;;;;;;1999.90;999.90;;;;;;;17.74;100.00;96071.13;5064244;28;20162;-54
2023/09/30 00:51:13;;;;;;;1999.90;999.90;;;;;;;17.73;100.00;96072.34;5063743;28;20176;-53
2023/09/30 00:53:39;;;;;;;1999.90;999.90;;;;;;;17.68;100.00;96072.88;5063750;28;20237;-52
2023/09/30 00:56:05;;;;;;;1999.90;999.90;;;;;;;17.62;100.00;96075.38;5063380;28;20385;-50
2023/09/30 00:58:33;;;;;;;1999.90;999.90;;;;;;;17.57;100.00;96073.13;5063831;28;20218;-50
2023/09/30 01:00:59;;;;;;;1999.90;999.90;;;;;;;17.53;100.00;96068.91;5064107;28;20170;-51
2023/09/30 01:03:25;;;;;;;1999.90;999.90;;;;;;;17.53;100.00;96066.13;5063705;28;20173;-50
2023/09/30 01:05:50;;;;;;;1999.90;999.90;;;;;;;17.51;100.00;96060.25;5064008;28;20218;-50
2023/09/30 01:08:16;;;;;;;1999.90;999.90;;;;;;;17.46;100.00;96074.59;5063724;28;20170;-49
2023/09/30 01:10:42;;;;;;;1999.90;999.90;;;;;;;17.45;100.00;96078.56;5063725;28;20174;-48
2023/09/30 01:13:08;;;;;;;1999.90;999.90;;;;;;;17.46;100.00;96071.81;5063799;28;20435;-47
2023/09/30 01:15:34;;;;;;;1999.90;999.90;;;;;;;17.44;100.00;96068.72;5063735;28;20197;-51
2023/09/30 01:17:59;;;;;;;1999.90;999.90;;;;;;;17.47;100.00;96070.59;5063418;28;20192;-48
2023/09/30 01:20:25;;;;;;;1999.90;999.90;;;;;;;17.46;100.00;96067.09;5064408;28;20169;-48
2023/09/30 01:22:50;;;;;;;1999.90;999.90;;;;;;;17.46;100.00;96061.56;5064183;28;20181;-50
2023/09/30 01:25:15;;;;;;;1999.90;999.90;;;;;;;17.48;100.00;96058.38;5064095;28;20219;-54
2023/09/30 01:27:41;;;;;;;1999.90;999.90;;;;;;;17.48;100.00;96053.59;5064104;28;20173;-51
2023/09/30 01:30:10;;;;;;;1999.90;999.90;;;;;;;17.48;100.00;96058.38;5063593;28;20173;-47
2023/09/30 01:32:36;;;;;;;1999.90;999.90;;;;;;;17.46;100.00;96052.50;5063471;28;20173;-47
2023/09/30 01:35:02;;;;;;;1999.90;999.90;;;;;;;17.46;100.00;96052.50;5064080;28;20216;-52
2023/09/30 01:37:30;;;;;;;1999.90;999.90;;;;;;;17.44;100.00;96054.91;5063377;28;20177;-51
2023/09/30 01:39:56;;;;;;;1999.90;999.90;;;;;;;17.45;100.00;96053.72;5063779;28;20181;-50
2023/09/30 01:42:21;;;;;;;1999.90;999.90;;;;;;;17.48;100.00;96047.31;5063795;28;20170;-49
2023/09/30 01:44:46;;;;;;;1999.90;999.90;;;;;;;17.50;100.00;96055.94;5063835;28;20204;-49
2023/09/30 01:47:12;;;;;;;1999.90;999.90;;;;;;;17.46;100.00;96066.31;5063633;28;20177;-48
2023/09/30 01:49:37;;;;;;;1999.90;999.90;;;;;;;17.45;100.00;96067.50;5063118;28;20177;-52
2023/09/30 01:52:03;;;;;;;1999.90;999.90;;;;;;;17.43;100.00;96069.91;5063755;28;20180;-51
2023/09/30 01:54:28;;;;;;;1999.90;999.90;;;;;;;17.44;100.00;96063.22;5063491;28;20170;-49
2023/09/30 01:56:54;;;;;;;1999.90;999.90;;;;;;;17.45;100.00;96056.47;5063480;28;20207;-49
2023/09/30 01:59:19;;;;;;;1999.90;999.90;;;;;;;17.45;100.00;96060.00;5063522;28;20174;-51
2023/09/30 02:01:45;;;;;;;1999.90;999.90;;;;;;;17.49;100.00;96065.44;5063547;28;20197;-50
2023/09/30 02:04:15;;;;;;;1999.90;999.90;;;;;;;17.49;100.00;96054.41;5063522;28;20200;-47
2023/09/30 02:06:41;;;;;;;1999.90;999.90;;;;;;;17.47;100.00;96056.78;5063779;28;20238;-47
2023/09/30 02:09:08;;;;;;;1999.90;999.90;;;;;;;17.42;100.00;96060.09;5067064;28;20165;-52
2023/09/30 02:11:34;;;;;;;1999.90;999.90;;;;;;;17.38;100.00;96057.41;5066866;28;20249;-53
2023/09/30 02:14:00;;;;;;;1999.90;999.90;;;;;;;17.33;100.00;96051.59;5066950;28;20170;-51
2023/09/30 02:16:25;;;;;;;1999.90;999.90;;;;;;;17.24;100.00;96049.44;5067117;28;20200;-51
2023/09/30 02:18:51;;;;;;;1999.90;999.90;;;;;;;17.20;100.00;96056.25;5066835;28;20166;-51
2023/09/30 02:21:17;;;;;;;1999.90;999.90;;;;;;;17.17;100.00;96043.28;5067255;28;20174;-49
2023/09/30 02:23:43;;;;;;;1999.90;999.90;;;;;;;17.15;100.00;96043.72;5066669;28;20201;-52
2023/09/30 02:26:12;;;;;;;1999.90;999.90;;;;;;;17.19;100.00;96040.88;5066702;28;20420;-50
2023/09/30 02:28:37;;;;;;;1999.90;999.90;;;;;;;17.21;100.00;96044.78;5066716;28;20166;-50
2023/09/30 02:31:03;;;;;;;1999.90;999.90;;;;;;;17.23;100.00;96042.34;5067132;28;20298;-51
2023/09/30 02:33:28;;;;;;;1999.90;999.90;;;;;;;17.26;100.00;96051.78;5067070;28;20170;-50
2023/09/30 02:35:54;;;;;;;1999.90;999.90;;;;;;;17.30;100.00;96044.19;5066446;28;20170;-51
2023/09/30 02:38:20;;;;;;;1999.90;999.90;;;;;;;17.31;100.00;96042.97;5066948;28;20181;-50
2023/09/30 02:40:48;;;;;;;1999.90;999.90;;;;;;;17.31;100.00;96042.97;5066500;28;20249;-50
2023/09/30 02:43:13;;;;;;;1999.90;999.90;;;;;;;17.34;100.00;96042.09;5066290;28;20166;-52
2023/09/30 02:45:39;;;;;;;1999.90;999.90;;;;;;;17.31;100.00;96048.50;5066317;28;20241;-49
2023/09/30 02:48:05;;;;;;;1999.90;999.90;;;;;;;17.30;100.00;96046.94;5066328;28;20173;-54
2023/09/30 02:50:30;;;;;;;1999.90;999.90;;;;;;;17.29;100.00;96056.41;5066211;28;20166;-48
2023/09/30 02:52:55;;;;;;;1999.90;999.90;;;;;;;17.28;100.00;96049.34;5066382;28;20166;-48
2023/09/30 02:55:20;;;;;;;1999.90;999.90;;;;;;;17.23;100.00;96047.09;5066581;28;20173;-51
2023/09/30 02:57:46;;;;;;;1999.90;999.90;;;;;;;17.20;100.00;96042.44;5066629;28;20188;-46
2023/09/30 03:00:23;;;;;;;1999.90;999.90;;;;;;;17.19;100.00;96040.88;5066021;28;20170;-47
2023/09/30 03:02:55;;;;;;;1999.90;999.90;;;;;;;17.15;100.00;96037.44;5066664;28;20165;-49
2023/09/30 03:05:22;;;;;;;1999.90;999.90;;;;;;;17.12;100.00;96035.53;5065853;28;20228;-49
2023/09/30 03:07:52;;;;;;;1999.90;999.90;;;;;;;17.10;100.00;96043.44;5065909;28;20193;-51
2023/09/30 03:10:23;;;;;;;1999.90;999.90;;;;;;;17.03;100.00;96049.13;5065851;28;20185;-49
2023/09/30 03:12:56;;;;;;;1999.90;999.90;;;;;;;17.00;100.00;96044.50;5065516;28;20169;-52
2023/09/30 03:15:23;;;;;;;1999.90;999.90;;;;;;;16.98;100.00;96035.84;5065698;28;20235;-46
2023/09/30 03:17:49;;;;;;;1999.90;999.90;;;;;;;16.96;100.00;96039.03;5065714;28;20256;-51
2023/09/30 03:20:18;;;;;;;1999.90;999.90;;;;;;;16.95;100.00;96043.00;5065778;28;20182;-52
2023/09/30 03:22:43;;;;;;;1999.90;999.90;;;;;;;16.88;100.00;96040.41;5065628;28;20169;-51
2023/09/30 03:25:11;;;;;;;1999.90;999.90;;;;;;;16.88;100.00;96040.41;5065447;28;20308;-53
2023/09/30 03:27:38;;;;;;;1999.90;999.90;;;;;;;16.87;100.00;96040.81;5065873;28;20244;-50
2023/09/30 03:30:05;;;;;;;1999.90;999.90;;;;;;;16.86;100.00;96034.53;5065500;28;20220;-48
2023/09/30 03:32:32;;;;;;;1999.90;999.90;;;;;;;16.81;100.00;96031.50;5065525;28;20205;-48
2023/09/30 03:35:00;;;;;;;1999.90;999.90;;;;;;;16.80;100.00;96040.97;5065933;28;20174;-52
2023/09/30 03:37:26;;;;;;;1999.90;999.90;;;;;;;16.74;100.00;96037.16;5065354;28;20177;-49
2023/09/30 03:39:54;;;;;;;1999.90;999.90;;;;;;;16.68;100.00;96033.38;5065820;28;20170;-48
2023/09/30 03:42:19;;;;;;;1999.90;999.90;;;;;;;16.63;100.00;96037.41;5065279;28;20241;-49
2023/09/30 03:44:45;;;;;;;1999.90;999.90;;;;;;;16.63;100.00;96036.59;5065101;28;20251;-49
2023/09/30 03:47:11;;;;;;;1999.90;999.90;;;;;;;16.64;100.00;96027.16;5065209;28;20208;-48
2023/09/30 03:49:38;;;;;;;1999.90;999.90;;;;;;;16.67;100.00;96031.81;5065326;28;20170;-54
2023/09/30 03:52:04;;;;;;;1999.90;999.90;;;;;;;16.71;100.00;96021.50;5065835;28;20173;-53
2023/09/30 03:54:29;;;;;;;1999.90;999.90;;;;;;;16.72;100.00;96023.81;5064931;28;20169;-47
2023/09/30 03:56:55;;;;;;;1999.90;999.90;;;;;;;16.75;100.00;96020.19;5064838;28;20193;-51
2023/09/30 03:59:20;;;;;;;1999.90;999.90;;;;;;;16.78;100.00;96021.34;5064945;28;20166;-51
2023/09/30 04:01:47;;;;;;;1999.90;999.90;;;;;;;16.79;100.00;96028.41;5064950;28;20170;-52
2023/09/30 04:04:12;;;;;;;1999.90;999.90;;;;;;;16.84;100.00;96030.63;5064621;28;20225;-53
2023/09/30 04:06:38;;;;;;;1999.90;999.90;;;;;;;16.87;100.00;96029.78;5065337;28;20209;-51
2023/09/30 04:09:10;;;;;;;1999.90;999.90;;;;;;;16.90;100.00;96028.94;5065313;28;20192;-52
2023/09/30 04:11:37;;;;;;;1999.90;999.90;;;;;;;16.89;100.00;96028.16;5065288;28;20173;-50
2023/09/30 04:14:03;;;;;;;1999.90;999.90;;;;;;;16.92;100.00;96032.03;5064670;28;20241;-51
2023/09/30 04:16:30;;;;;;;1999.90;999.90;;;;;;;16.93;100.00;96033.59;5064842;28;20228;-54
2023/09/30 04:18:55;;;;;;;1999.90;999.90;;;;;;;16.92;100.00;96032.81;5065085;28;20170;-54
2023/09/30 04:21:20;;;;;;;1999.90;999.90;;;;;;;16.93;100.00;96036.38;5064537;28;20209;-52
2023/09/30 04:23:46;;;;;;;1999.90;999.90;;;;;;;16.93;100.00;96028.09;5064827;28;20205;-52
2023/09/30 04:26:11;;;;;;;1999.90;999.90;;;;;;;16.87;100.00;96035.31;5064527;28;20174;-52
2023/09/30 04:28:37;;;;;;;1999.90;999.90;;;;;;;16.80;100.00;96035.47;5064365;28;20181;-50
2023/09/30 04:31:03;;;;;;;1999.90;999.90;;;;;;;16.78;100.00;96029.59;5063768;28;20170;-52
2023/09/30 04:33:28;;;;;;;1999.90;999.90;;;;;;;16.75;100.00;96028.47;5064328;28;20177;-49
2023/09/30 04:35:53;;;;;;;1999.90;999.90;;;;;;;16.71;100.00;96029.75;5064281;28;20212;-52
2023/09/30 04:38:19;;;;;;;1999.90;999.90;;;;;;;16.69;100.00;96030.19;5064702;28;20174;-52
2023/09/30 04:40:48;;;;;;;1999.90;999.90;;;;;;;16.65;100.00;96023.19;5064213;28;20178;-54
2023/09/30 04:43:14;;;;;;;1999.90;999.90;;;;;;;16.62;100.00;96032.31;5064632;28;20174;-52
2023/09/30 04:45:39;;;;;;;1999.90;999.90;;;;;;;16.59;100.00;96035.91;5064539;28;20185;-52
2023/09/30 04:48:05;;;;;;;1999.90;999.90;;;;;;;16.54;100.00;96028.16;5064146;28;20173;-52
2023/09/30 04:50:30;;;;;;;1999.90;999.90;;;;;;;16.49;100.00;96039.69;5063708;28;20170;-52
2023/09/30 04:52:57;;;;;;;1999.90;999.90;;;;;;;16.47;100.00;96039.31;5064311;28;20170;-54
2023/09/30 04:55:23;;;;;;;1999.90;999.90;;;;;;;16.40;100.00;96040.22;5064018;28;20181;-48
2023/09/30 04:57:49;;;;;;;1999.90;999.90;;;;;;;16.35;100.00;96033.22;5064010;28;20193;-53
2023/09/30 05:00:17;;;;;;;1999.90;999.90;;;;;;;16.28;100.00;96027.84;5064807;28;20170;-47
2023/09/30 05:02:44;;;;;;;1999.90;999.90;;;;;;;16.23;100.00;96020.06;5064411;28;20162;-49
2023/09/30 05:05:10;;;;;;;1999.90;999.90;;;;;;;16.19;100.00;96021.34;5063607;28;20226;-51
2023/09/30 05:07:36;;;;;;;1999.90;999.90;;;;;;;16.14;100.00;96022.59;5063685;28;20219;-50
2023/09/30 05:10:05;;;;;;;1999.90;999.90;;;;;;;16.12;100.00;96022.25;5064305;28;20170;-52
2023/09/30 05:12:30;;;;;;;1999.90;999.90;;;;;;;16.09;100.00;96020.34;5063623;28;20208;-52
2023/09/30 05:14:56;;;;;;;1999.90;999.90;;;;;;;16.06;100.00;96021.19;5063967;28;20181;-47
2023/09/30 05:17:21;;;;;;;1999.90;999.90;;;;;;;16.03;100.00;96018.53;5063655;28;20260;-50
2023/09/30 05:19:48;;;;;;;1999.90;999.90;;;;;;;16.04;100.00;96015.34;5063742;28;20169;-49
2023/09/30 05:22:13;;;;;;;1999.90;999.90;;;;;;;16.09;100.00;96017.59;5064065;28;20173;-50
2023/09/30 05:24:38;;;;;;;1999.90;999.90;;;;;;;16.13;100.00;96009.25;5063533;28;20208;-50
2023/09/30 05:27:04;;;;;;;1999.90;999.90;;;;;;;16.18;100.00;96009.53;5063466;28;20177;-48
2023/09/30 05:29:29;;;;;;;1999.90;999.90;;;;;;;16.23;100.00;96009.06;5063554;28;20176;-52
2023/09/30 05:31:56;;;;;;;1999.90;999.90;;;;;;;16.28;100.00;96010.50;5063584;28;20170;-49
2023/09/30 05:34:21;;;;;;;1999.90;999.90;;;;;;;16.34;100.00;96008.81;5063526;28;20233;-52
2023/09/30 05:36:46;;;;;;;1999.90;999.90;;;;;;;16.39;100.00;96000.03;5063491;28;20177;-51
2023/09/30 05:39:12;;;;;;;1999.90;999.90;;;;;;;16.43;100.00;96020.09;5063409;28;20166;-53
2023/09/30 05:41:38;;;;;;;1999.90;999.90;;;;;;;16.48;100.00;96024.31;5065265;28;20201;-53
2023/09/30 05:44:04;;;;;;;1999.90;999.90;;;;;;;16.48;100.00;96035.34;5067831;28;20202;-51
2023/09/30 05:46:32;;;;;;;1999.90;999.90;;;;;;;16.52;100.00;96041.56;5068131;28;20212;-50
2023/09/30 05:48:58;;;;;;;1999.90;999.90;;;;;;;16.55;100.00;96051.75;5067643;28;20173;-49
2023/09/30 05:51:23;;;;;;;1999.90;999.90;;;;;;;16.56;100.00;96054.09;5068076;28;20197;-47
2023/09/30 05:53:50;;;;;;;1999.90;999.90;;;;;;;16.59;100.00;96063.50;5067305;28;20372;-52
2023/09/30 05:56:15;;;;;;;1999.90;999.90;;;;;;;16.63;100.00;96075.22;5066982;28;20180;-50
2023/09/30 05:58:42;;;;;;;1999.90;999.90;;;;;;;16.63;100.00;96067.75;5067837;28;20201;-52
2023/09/30 06:01:10;;;;;;;1999.90;999.90;;;;;;;16.73;100.00;96068.72;5067061;28;20178;-48
2023/09/30 06:03:39;;;;;;;1999.90;999.90;;;;;;;16.78;100.00;96071.00;5067752;28;20189;-50
2023/09/30 06:06:12;;;;;;;1999.90;999.90;;;;;;;16.87;100.00;96068.41;5067133;28;20275;-52
2023/09/30 06:08:37;;;;;;;1999.90;999.90;;;;;;;16.91;100.00;96074.63;5067040;28;20170;-46
2023/09/30 06:11:02;;;;;;;1999.90;999.90;;;;;;;17.00;100.00;96078.38;5067586;28;20197;-52
2023/09/30 06:13:31;;;;;;;1999.90;999.90;;;;;;;17.10;100.00;96087.63;5066527;28;20250;-51
2023/09/30 06:15:58;;;;;;;1999.90;999.90;;;;;;;17.17;100.00;96087.47;5067426;28;20208;-53
2023/09/30 06:18:23;;;;;;;1999.90;999.90;;;;;;;17.31;100.00;96092.66;5066839;28;20185;-46
2023/09/30 06:20:50;;;;;;;1999.90;999.90;;;;;;;17.40;100.00;96096.38;5066842;28;20367;-48
2023/09/30 06:23:16;;;;;;;1999.90;999.90;;;;;;;17.47;100.00;96106.50;5066792;28;20241;-51
2023/09/30 06:25:41;;;;;;;1999.90;999.90;;;;;;;17.50;100.00;96122.22;5066647;28;20197;-48
2023/09/30 06:28:07;;;;;;;1999.90;999.90;;;;;;;17.57;100.00;96133.91;5067245;28;20177;-46
2023/09/30 06:30:33;;;;;;;1999.90;999.90;;;;;;;17.62;100.00;96127.06;5066815;28;20459;-47
2023/09/30 06:33:01;;;;;;;1999.90;999.90;;;;;;;17.71;100.00;96138.31;5066564;28;20269;-47
2023/09/30 06:35:37;;;;;;;1999.90;999.90;;;;;;;17.83;100.00;96143.94;5066961;28;20174;-48
2023/09/30 06:38:03;;;;;;;1999.90;999.90;;;;;;;18.30;100.00;96163.69;5066568;28;20172;-48
2023/09/30 06:40:28;;;;;;;1999.90;999.90;;;;;;;18.80;100.00;96186.88;5066835;28;20174;-47
2023/09/30 06:42:53;;;;;;;1999.90;999.90;;;;;;;19.43;100.00;96201.72;5066381;28;20174;-48
2023/09/30 06:45:19;;;;;;;1999.90;999.90;;;;;;;19.21;100.00;96211.84;5066756;28;20197;-47
2023/09/30 06:47:45;;;;;;;1999.90;999.90;;;;;;;18.88;100.00;96209.59;5066208;28;20245;-51
2023/09/30 06:50:15;;;;;;;1999.90;999.90;;;;;;;19.08;100.00;96204.69;5066231;28;20174;-52
2023/09/30 06:52:42;;;;;;;1999.90;999.90;;;;;;;19.00;100.00;96206.88;5065711;28;20174;-50
2023/09/30 06:55:08;;;;;;;1999.90;999.90;;;;;;;18.80;100.00;96211.78;5065662;28;20245;-53
2023/09/30 06:57:35;;;;;;;1999.90;999.90;;;;;;;18.83;100.00;96215.69;5066034;28;20212;-51
2023/09/30 07:00:03;;;;;;;1999.90;999.90;;;;;;;19.07;100.00;96222.53;5066622;28;20170;-50
2023/09/30 07:02:29;;;;;;;1999.90;999.90;;;;;;;19.33;100.00;96224.97;5066588;28;20241;-52
2023/09/30 07:04:54;;;;;;;1999.90;999.90;;;;;;;19.29;100.00;96234.59;5065659;28;20229;-48
2023/09/30 07:07:19;;;;;;;1999.90;999.90;;;;;;;19.15;100.00;96218.34;5065931;28;20216;-50
2023/09/30 07:09:45;;;;;;;1999.90;999.90;;;;;;;18.88;100.00;96221.47;5066272;28;20246;-51
2023/09/30 07:12:10;;;;;;;1999.90;999.90;;;;;;;18.88;100.00;96226.22;5065951;28;20223;-51
2023/09/30 07:14:35;;;;;;;1999.90;999.90;;;;;;;18.96;100.00;96231.13;5065766;28;20174;-56
2023/09/30 07:17:01;;;;;;;1999.90;999.90;;;;;;;19.06;100.00;96232.06;5065666;28;20180;-56
2023/09/30 07:19:26;;;;;;;1999.90;999.90;;;;;;;19.07;100.00;96228.06;5065604;28;20241;-55
2023/09/30 07:21:51;;;;;;;1999.90;999.90;;;;;;;18.99;100.00;96237.78;5065616;28;20181;-57
2023/09/30 07:24:17;;;;;;;1999.90;999.90;;;;;;;18.98;100.00;96237.00;5065477;28;20201;-57
2023/09/30 07:26:42;;;;;;;1999.90;999.90;;;;;;;19.00;100.00;96231.81;5065521;28;20170;-57
2023/09/30 07:29:09;;;;;;;1999.90;999.90;;;;;;;19.14;100.00;96233.41;5065389;28;20169;-55
2023/09/30 07:31:37;;;;;;;1999.90;999.90;;;;;;;19.18;100.00;96242.38;5065922;28;20240;-56
2023/09/30 07:34:03;;;;;;;1999.90;999.90;;;;;;;19.04;100.00;96243.56;5066113;28;20217;-56
2023/09/30 07:36:28;;;;;;;1999.90;999.90;;;;;;;19.18;100.00;96239.63;5065361;28;20178;-58
2023/09/30 07:38:54;;;;;;;1999.90;999.90;;;;;;;18.87;100.00;96246.81;5065167;28;20173;-57
2023/09/30 07:41:19;;;;;;;1999.90;999.90;;;;;;;18.80;100.00;96263.63;5065757;28;20174;-55
2023/09/30 07:43:44;;;;;;;1999.90;999.90;;;;;;;18.64;100.00;96255.31;5065057;28;20308;-56
2023/09/30 07:46:10;;;;;;;1999.90;999.90;;;;;;;18.75;100.00;96256.59;5065635;28;20170;-56
2023/09/30 07:48:35;;;;;;;1999.90;999.90;;;;;;;18.85;100.00;96254.78;5065520;28;20170;-55
2023/09/30 07:51:01;;;;;;;1999.90;999.90;;;;;;;19.03;100.00;96255.88;5065125;28;20170;-63
2023/09/30 07:53:27;;;;;;;1999.90;999.90;;;;;;;19.37;100.00;96252.56;5065007;28;20201;-59
2023/09/30 07:55:54;;;;;;;1999.90;999.90;;;;;;;20.19;100.00;96273.91;5064926;28;20177;-60
2023/09/30 07:58:19;;;;;;;1999.90;999.90;;;;;;;20.40;100.00;96276.75;5064807;28;20205;-61
2023/09/30 08:00:45;;;;;;;1999.90;999.90;;;;;;;20.27;100.00;96278.78;5064975;28;20178;-63
2023/09/30 08:03:11;;;;;;;1999.90;999.90;;;;;;;20.27;100.00;96286.31;5064770;28;20194;-59
2023/09/30 08:05:37;;;;;;;1999.90;999.90;;;;;;;20.28;100.00;96283.09;5064538;28;20225;-52
2023/09/30 08:08:02;;;;;;;1999.90;999.90;;;;;;;19.93;100.00;96289.72;5064658;28;20177;-55
2023/09/30 08:10:29;;;;;;;1999.90;999.90;;;;;;;20.40;100.00;96290.63;5064546;28;20170;-56
2023/09/30 08:12:57;;;;;;;1999.90;999.90;;;;;;;20.48;100.00;96282.88;5064611;28;20170;-55
2023/09/30 08:15:22;;;;;;;1999.90;999.90;;;;;;;20.71;100.00;96277.75;5064582;28;20174;-54
2023/09/30 08:17:47;;;;;;;1999.90;999.90;;;;;;;21.42;100.00;96276.09;5064893;28;20216;-55
2023/09/30 08:20:13;;;;;;;1999.90;999.90;;;;;;;21.59;100.00;96281.00;5064521;28;20217;-55
2023/09/30 08:22:39;;;;;;;1999.90;999.90;;;;;;;21.30;100.00;96280.47;5064386;28;20170;-55
2023/09/30 08:25:06;;;;;;;1999.90;999.90;;;;;;;20.99;100.00;96278.81;5064392;28;20278;-55
2023/09/30 08:27:31;;;;;;;1999.90;999.90;;;;;;;20.61;100.00;96264.97;5064768;28;20178;-54
2023/09/30 08:29:57;;;;;;;1999.90;999.90;;;;;;;20.96;100.00;96255.50;5064833;28;20173;-55
2023/09/30 08:32:23;;;;;;;1999.90;999.90;;;;;;;22.68;100.00;96254.50;5063874;28;20170;-51
2023/09/30 08:34:49;;;;;;;1999.90;999.90;;;;;;;23.79;100.00;96269.59;5064351;28;20173;-53
2023/09/30 08:37:14;;;;;;;1999.90;999.90;;;;;;;24.33;100.00;96297.38;5064111;28;20166;-57
2023/09/30 08:39:40;;;;;;;1999.90;999.90;;;;;;;23.99;100.00;96300.56;5064646;28;20246;-56
2023/09/30 08:42:13;;;;;;;1999.90;999.90;;;;;;;23.32;100.00;96286.03;5064664;28;20173;-56
2023/09/30 08:44:39;;;;;;;1999.90;999.90;;;;;;;23.58;100.00;96309.59;5063933;28;20201;-54
2023/09/30 08:47:05;;;;;;;1999.90;999.90;;;;;;;22.98;100.00;96308.59;5064728;28;20170;-56
2023/09/30 08:49:34;;;;;;;1999.90;999.90;;;;;;;22.28;100.00;96309.41;5063995;28;20165;-56
2023/09/30 08:52:01;;;;;;;1999.90;999.90;;;;;;;22.16;100.00;96297.16;5064235;28;20168;-56
2023/09/30 08:54:27;;;;;;;1999.90;999.90;;;;;;;21.89;100.00;96305.31;5064471;28;20185;-55
2023/09/30 08:56:53;;;;;;;1999.90;999.90;;;;;;;21.82;100.00;96322.28;5063905;28;20177;-55
2023/09/30 08:59:19;;;;;;;1999.90;999.90;;;;;;;21.93;100.00;96311.53;5063886;28;20158;-56
2023/09/30 09:01:44;;;;;;;1999.90;999.90;;;;;;;21.58;100.00;96303.69;5064282;28;20158;-56
2023/09/30 09:04:10;;;;;;;1999.90;999.90;;;;;;;21.49;100.00;96287.72;5064133;28;20205;-55
2023/09/30 09:06:35;;;;;;;1999.90;999.90;;;;;;;22.40;100.00;96295.38;5064282;28;20166;-54
2023/09/30 09:09:18;;;;;;;1999.90;999.90;;;;;;;22.38;100.00;96291.50;5064545;28;20167;-56
2023/09/30 09:11:44;;;;;;;1999.90;999.90;;;;;;;22.66;100.00;96284.06;5064209;28;20233;-55
2023/09/30 09:14:09;;;;;;;1999.90;999.90;;;;;;;23.72;100.00;96281.06;5063677;28;20212;-56
2023/09/30 09:16:35;;;;;;;1999.90;999.90;;;;;;;24.16;100.00;96299.78;5063154;28;20170;-57
2023/09/30 09:19:13;;;;;;;1999.90;999.90;;;;;;;24.67;100.00;96302.53;5063550;28;20177;-55
2023/09/30 09:21:54;;;;;;;1999.90;999.90;;;;;;;25.16;100.00;96297.28;5063861;28;20174;-56
2023/09/30 09:24:30;;;;;;;1999.90;999.90;;;;;;;25.69;100.00;96286.16;5063248;28;20255;-55
2023/09/30 09:27:12;;;;;;;1999.90;999.90;;;;;;;25.75;100.00;96287.06;5063681;28;20212;-56
2023/09/30 09:29:39;;;;;;;1999.90;999.90;;;;;;;25.71;100.00;96294.88;5064107;28;20241;-53
2023/09/30 09:32:12;;;;;;;1999.90;999.90;;;;;;;25.05;100.00;96311.81;5063530;28;20185;-54
2023/09/30 09:34:38;;;;;;;1999.90;999.90;;;;;;;24.36;100.00;96310.41;5063329;28;20158;-55
2023/09/30 09:37:20;;;;;;;1999.90;999.90;;;;;;;23.51;100.00;96321.06;5064160;28;20162;-55
2023/09/30 09:39:55;;;;;;;1999.90;999.90;;;;;;;22.76;100.00;96321.84;5064064;28;20185;-55
2023/09/30 09:42:39;;;;;;;1999.90;999.90;;;;;;;22.17;100.00;96318.19;5063870;28;20188;-55
2023/09/30 09:45:05;;;;;;;1999.90;999.90;;;;;;;21.76;100.00;96301.88;5063727;28;20238;-55
2023/09/30 09:47:34;;;;;;;1999.90;999.90;;;;;;;22.06;100.00;96298.31;5063704;28;20158;-55
2023/09/30 09:50:02;;;;;;;1999.90;999.90;;;;;;;22.04;100.00;96286.84;5064041;28;20200;-54
2023/09/30 09:52:29;;;;;;;1999.90;999.90;;;;;;;22.29;100.00;96267.19;5063653;28;20204;-57
2023/09/30 09:54:55;;;;;;;1999.90;999.90;;;;;;;23.29;100.00;96253.50;5063141;28;20237;-54
2023/09/30 09:57:20;;;;;;;1999.90;999.90;;;;;;;23.86;100.00;96255.31;5063635;28;20182;-56
2023/09/30 09:59:47;;;;;;;1999.90;999.90;;;;;;;24.03;100.00;96253.72;5063120;28;20162;-54
2023/09/30 10:02:16;;;;;;;1999.90;999.90;;;;;;;24.57;100.00;96250.72;5063619;28;20158;-56
2023/09/30 10:04:43;;;;;;;1999.90;999.90;;;;;;;24.79;100.00;96252.03;5063419;28;20237;-55
2023/09/30 10:07:14;;;;;;;1999.90;999.90;;;;;;;25.36;100.00;96258.31;5063616;28;20196;-55
2023/09/30 10:09:43;;;;;;;1999.90;999.90;;;;;;;25.93;100.00;96268.03;5063106;28;20227;-56
2023/09/30 10:12:10;;;;;;;1999.90;999.90;;;;;;;25.48;100.00;96262.09;5063572;28;20166;-55
2023/09/30 10:14:36;;;;;;;1999.90;999.90;;;;;;;24.91;100.00;96278.19;5063065;28;20297;-55
2023/09/30 10:17:03;;;;;;;1999.90;999.90;;;;;;;24.86;100.00;96284.44;5063625;28;20166;-55
2023/09/30 10:19:30;;;;;;;1999.90;999.90;;;;;;;25.58;100.00;96267.16;5062979;28;20211;-55
2023/09/30 10:22:19;;;;;;;1999.90;999.90;;;;;;;26.38;100.00;96261.19;5062884;28;20172;-55
2023/09/30 10:24:49;;;;;;;1999.90;999.90;;;;;;;26.27;100.00;96267.41;5062889;28;20198;-55
2023/09/30 10:27:33;;;;;;;1999.90;999.90;;;;;;;27.41;100.00;96269.59;5062993;28;20173;-55
2023/09/30 10:30:01;;;;;;;1999.90;999.90;;;;;;;26.00;100.00;96270.47;5067188;28;20173;-55
2023/09/30 10:32:52;;;;;;;1999.90;999.90;;;;;;;25.11;100.00;96267.97;5067099;28;20162;-57
2023/09/30 10:35:18;;;;;;;1999.90;999.90;;;;;;;24.74;100.00;96271.47;5067250;28;20178;-54
2023/09/30 10:37:44;;;;;;;1999.90;999.90;;;;;;;24.64;100.00;96255.97;5066414;28;20166;-56
2023/09/30 10:40:25;;;;;;;1999.90;999.90;;;;;;;24.81;100.00;96248.75;5066460;28;20166;-55
2023/09/30 10:42:51;;;;;;;1999.90;999.90;;;;;;;24.94;100.00;96246.47;5066641;28;20158;-55
2023/09/30 10:45:38;;;;;;;1999.90;999.90;;;;;;;25.00;100.00;96247.38;5066650;28;20269;-56